Time;durP1;ratioP1;P1;durP2;ratioP2;P2;SDS_P1;SDS_P2;PMS_P1;PMS_P2;Temp;Humidity;BMP_temperature;BMP_pressure;BME280_temperature;BME280_humidity;BME280_pressure;Samples;Min_cycle;Max_cycle;Signal;HPM_P1;HPM_P2
2020/12/17 00:01:11;;;;;;;4.63;4.22;;;10.30;99.90;;;;;;5113821;28;20201;-73
2020/12/17 00:03:37;;;;;;;5.22;3.80;;;10.20;99.90;;;;;;5114108;28;20196;-73
2020/12/17 00:06:04;;;;;;;4.38;3.97;;;10.30;99.90;;;;;;5113652;28;20200;-73
2020/12/17 00:08:30;;;;;;;4.80;3.60;;;10.30;99.90;;;;;;5113958;27;20201;-73
2020/12/17 00:10:57;;;;;;;4.20;3.75;;;10.30;99.90;;;;;;5113130;27;20220;-73
2020/12/17 00:13:23;;;;;;;4.63;3.95;;;10.30;99.90;;;;;;5124506;27;20282;-73
2020/12/17 00:15:49;;;;;;;5.97;4.32;;;10.30;99.90;;;;;;5117260;27;20204;-73
2020/12/17 00:18:16;;;;;;;5.30;3.88;;;10.30;99.90;;;;;;5113444;27;20201;-73
2020/12/17 00:20:42;;;;;;;3.72;3.30;;;10.20;99.90;;;;;;5113416;28;20201;-73
2020/12/17 00:23:09;;;;;;;5.00;4.57;;;10.20;99.90;;;;;;5129738;27;20204;-73
2020/12/17 00:25:35;;;;;;;5.40;4.35;;;10.30;99.90;;;;;;5126677;27;20861;-73
2020/12/17 00:28:02;;;;;;;3.38;3.05;;;10.20;99.90;;;;;;5119647;27;20196;-73
2020/12/17 00:30:28;;;;;;;3.60;3.08;;;10.20;99.90;;;;;;5124125;27;20221;-73
2020/12/17 00:32:54;;;;;;;3.50;3.20;;;10.20;99.90;;;;;;5133612;27;20206;-73
2020/12/17 00:35:21;;;;;;;4.63;4.22;;;10.30;99.90;;;;;;5133559;27;20196;-73
2020/12/17 00:37:47;;;;;;;4.50;3.47;;;10.30;99.90;;;;;;5126848;27;20562;-73
2020/12/17 00:40:15;;;;;;;4.10;3.70;;;10.20;99.90;;;;;;5116663;27;20220;-73
2020/12/17 00:42:43;;;;;;;3.83;3.00;;;10.30;99.90;;;;;;5119302;27;20200;-73
2020/12/17 00:45:10;;;;;;;3.97;3.05;;;10.30;99.90;;;;;;5128428;27;20245;-73
2020/12/17 00:47:37;;;;;;;4.25;3.85;;;10.30;99.90;;;;;;5132923;27;20216;-73
2020/12/17 00:50:04;;;;;;;3.80;3.30;;;10.30;99.90;;;;;;5115129;27;20279;-74
2020/12/17 00:52:30;;;;;;;4.55;3.15;;;10.30;99.90;;;;;;5122087;27;20293;-75
2020/12/17 00:54:56;;;;;;;3.35;2.60;;;10.30;99.90;;;;;;5113271;28;20185;-74
2020/12/17 00:57:26;;;;;;;4.63;3.83;;;10.30;99.90;;;;;;5114359;27;20196;-74
2020/12/17 00:59:53;;;;;;;3.10;2.60;;;10.30;99.90;;;;;;5113229;27;20189;-74
2020/12/17 01:02:20;;;;;;;4.18;3.78;;;10.30;99.90;;;;;;5112677;28;20294;-75
2020/12/17 01:04:46;;;;;;;3.50;3.17;;;10.30;99.90;;;;;;5115883;27;20633;-74
2020/12/17 01:07:12;;;;;;;3.65;3.20;;;10.30;99.90;;;;;;5129541;27;20250;-73
2020/12/17 01:09:39;;;;;;;3.55;3.25;;;10.30;99.90;;;;;;5122677;27;20219;-74
2020/12/17 01:12:06;;;;;;;3.78;3.38;;;10.30;99.90;;;;;;5114029;27;20547;-74
2020/12/17 01:14:34;;;;;;;3.53;3.22;;;10.30;99.90;;;;;;5115852;27;20218;-74
2020/12/17 01:17:01;;;;;;;3.92;3.28;;;10.30;99.90;;;;;;5127266;27;20243;-74
2020/12/17 01:19:28;;;;;;;4.45;3.75;;;10.30;99.90;;;;;;5112665;28;20287;-74
2020/12/17 01:21:54;;;;;;;5.53;3.42;;;10.30;99.90;;;;;;5112311;28;20211;-74
2020/12/17 01:24:20;;;;;;;4.20;3.45;;;10.30;99.90;;;;;;5114419;27;20201;-74
2020/12/17 01:26:47;;;;;;;4.05;3.00;;;10.40;99.90;;;;;;5115980;27;20196;-74
2020/12/17 01:29:13;;;;;;;5.55;3.90;;;10.30;99.90;;;;;;5113466;27;20545;-74
2020/12/17 01:31:40;;;;;;;3.45;3.20;;;10.30;99.90;;;;;;5117194;27;20223;-74
2020/12/17 01:34:06;;;;;;;3.55;2.75;;;10.30;99.90;;;;;;5122461;27;20644;-74
2020/12/17 01:36:32;;;;;;;5.43;4.40;;;10.40;99.90;;;;;;5131991;27;20196;-74
2020/12/17 01:38:59;;;;;;;3.53;3.22;;;10.30;99.90;;;;;;5125123;27;20256;-74
2020/12/17 01:41:25;;;;;;;8.23;4.63;;;10.30;99.90;;;;;;5113475;28;20200;-74
2020/12/17 01:43:51;;;;;;;4.75;3.72;;;10.30;99.90;;;;;;5113587;27;20200;-73
2020/12/17 01:46:17;;;;;;;3.58;3.03;;;10.30;99.90;;;;;;5112360;28;20258;-73
2020/12/17 01:48:45;;;;;;;3.30;3.00;;;10.30;99.90;;;;;;5118360;28;20215;-73
2020/12/17 01:51:11;;;;;;;3.60;3.13;;;10.40;99.90;;;;;;5132506;27;20219;-73
2020/12/17 01:53:39;;;;;;;3.65;3.35;;;10.40;99.90;;;;;;5116108;27;20192;-74
2020/12/17 01:56:10;;;;;;;4.82;3.33;;;10.30;99.90;;;;;;5128853;27;20539;-74
2020/12/17 01:58:41;;;;;;;7.18;2.95;;;10.40;99.90;;;;;;5116778;27;20189;-74
2020/12/17 02:01:11;;;;;;;3.50;3.20;;;10.30;99.90;;;;;;5136602;27;20242;-74
2020/12/17 02:03:37;;;;;;;3.00;2.70;;;10.30;99.90;;;;;;5117872;27;20196;-74
2020/12/17 02:06:05;;;;;;;3.03;2.72;;;10.30;99.90;;;;;;5116422;27;20628;-74
2020/12/17 02:08:36;;;;;;;3.80;3.28;;;10.30;99.90;;;;;;5134490;27;20196;-74
2020/12/17 02:11:03;;;;;;;3.28;2.70;;;10.30;99.90;;;;;;5117357;27;20243;-74
2020/12/17 02:13:33;;;;;;;3.13;2.83;;;10.30;99.90;;;;;;5115871;27;20201;-74
2020/12/17 02:16:00;;;;;;;3.15;2.33;;;10.30;99.90;;;;;;5123080;27;20196;-73
2020/12/17 02:18:27;;;;;;;2.58;2.38;;;10.30;99.90;;;;;;5126969;27;20257;-73
2020/12/17 02:20:54;;;;;;;2.53;2.33;;;10.30;99.90;;;;;;5116210;27;20201;-73
2020/12/17 02:23:21;;;;;;;3.25;2.80;;;10.30;99.90;;;;;;5122966;27;20201;-74
2020/12/17 02:25:49;;;;;;;3.92;2.80;;;10.30;99.90;;;;;;5126811;27;20216;-74
2020/12/17 02:28:15;;;;;;;3.72;2.83;;;10.30;99.90;;;;;;5128200;27;20214;-73
2020/12/17 02:30:42;;;;;;;3.25;2.92;;;10.30;99.90;;;;;;5117014;27;20578;-73
2020/12/17 02:33:08;;;;;;;4.30;3.30;;;10.30;99.90;;;;;;5115689;27;20235;-73
2020/12/17 02:35:34;;;;;;;2.95;2.75;;;10.30;99.90;;;;;;5128878;27;20256;-74
2020/12/17 02:38:01;;;;;;;2.55;2.35;;;10.30;99.90;;;;;;5130842;27;20205;-73
2020/12/17 02:40:27;;;;;;;2.90;2.67;;;10.30;99.90;;;;;;5117884;27;20224;-73
2020/12/17 02:42:54;;;;;;;2.97;2.72;;;10.30;99.90;;;;;;5115760;28;20192;-73
2020/12/17 02:45:20;;;;;;;2.53;2.20;;;10.30;99.90;;;;;;5115956;27;20204;-73
2020/12/17 02:47:46;;;;;;;3.20;2.83;;;10.30;99.90;;;;;;5122776;27;20578;-73
2020/12/17 02:50:14;;;;;;;3.40;3.10;;;10.30;99.90;;;;;;5114878;28;20257;-73
2020/12/17 02:52:40;;;;;;;2.80;2.50;;;10.40;99.90;;;;;;5115688;28;20273;-73
2020/12/17 02:55:06;;;;;;;5.05;3.17;;;10.40;99.90;;;;;;5115020;28;20201;-73
2020/12/17 03:00:55;;;;;;;3.83;2.80;;;10.30;99.90;;;;;;5126490;27;20192;-73
2020/12/17 03:03:22;;;;;;;3.03;2.40;;;10.40;99.90;;;;;;5128870;27;20196;-74
2020/12/17 03:05:48;;;;;;;5.80;3.28;;;10.40;99.90;;;;;;5114331;28;20245;-74
2020/12/17 03:08:15;;;;;;;3.00;2.55;;;10.40;99.90;;;;;;5119874;27;20196;-74
2020/12/17 03:10:41;;;;;;;6.80;2.30;;;10.40;99.90;;;;;;5114920;28;20704;-73
2020/12/17 03:13:07;;;;;;;3.63;3.13;;;10.30;99.90;;;;;;5115078;28;20214;-73
2020/12/17 03:15:33;;;;;;;2.25;2.05;;;10.40;99.90;;;;;;5114719;27;20265;-73
2020/12/17 03:18:00;;;;;;;4.82;2.85;;;10.40;99.90;;;;;;5123084;27;20199;-74
2020/12/17 03:20:27;;;;;;;2.65;2.20;;;10.40;99.90;;;;;;5114256;27;20189;-74
2020/12/17 03:22:53;;;;;;;3.90;2.55;;;10.40;99.90;;;;;;5117390;27;20646;-74
2020/12/17 03:25:19;;;;;;;5.40;2.80;;;10.40;99.90;;;;;;5129675;27;20200;-75
2020/12/17 03:27:46;;;;;;;2.20;2.00;;;10.40;99.90;;;;;;5128902;27;20200;-75
2020/12/17 03:30:12;;;;;;;3.92;2.83;;;10.40;99.90;;;;;;5135423;27;20212;-75
2020/12/17 03:32:38;;;;;;;3.20;2.78;;;10.40;99.90;;;;;;5118034;27;20282;-75
2020/12/17 03:35:05;;;;;;;2.67;2.33;;;10.40;99.90;;;;;;5114879;27;20193;-75
2020/12/17 03:37:32;;;;;;;4.10;2.95;;;10.40;99.90;;;;;;5121911;27;20205;-74
2020/12/17 03:39:58;;;;;;;3.42;2.53;;;10.40;99.90;;;;;;5114068;28;20309;-73
2020/12/17 03:42:24;;;;;;;2.90;2.65;;;10.40;99.90;;;;;;5114938;27;20196;-73
2020/12/17 03:44:50;;;;;;;4.25;2.80;;;10.40;99.90;;;;;;5119308;27;20196;-73
2020/12/17 03:47:17;;;;;;;3.22;2.92;;;10.40;99.90;;;;;;5123288;27;20213;-73
2020/12/17 03:49:43;;;;;;;2.88;2.58;;;10.40;99.90;;;;;;5115756;27;20250;-73
2020/12/17 03:52:11;;;;;;;4.55;2.83;;;10.40;99.90;;;;;;5121809;27;20188;-74
2020/12/17 03:54:37;;;;;;;4.65;2.75;;;10.40;99.90;;;;;;5113739;28;20219;-73
2020/12/17 03:57:04;;;;;;;2.83;2.58;;;10.40;99.90;;;;;;5113427;28;20204;-73
2020/12/17 03:59:30;;;;;;;3.55;2.40;;;10.50;99.90;;;;;;5113663;28;20185;-74
2020/12/17 04:01:56;;;;;;;3.10;2.72;;;10.40;99.90;;;;;;5125476;27;20208;-75
2020/12/17 04:04:22;;;;;;;3.17;2.60;;;10.50;99.90;;;;;;5127030;27;20204;-73
2020/12/17 04:06:49;;;;;;;4.40;2.88;;;10.50;99.90;;;;;;5126760;27;20227;-73
2020/12/17 04:09:16;;;;;;;4.00;3.47;;;10.50;99.90;;;;;;5122827;27;20204;-73
2020/12/17 04:11:42;;;;;;;4.07;3.15;;;10.50;99.90;;;;;;5122151;27;20312;-73
2020/12/17 04:14:08;;;;;;;2.63;2.42;;;10.50;99.90;;;;;;5121876;27;20197;-73
2020/12/17 04:16:35;;;;;;;3.25;2.80;;;10.50;99.90;;;;;;5112235;28;20219;-74
2020/12/17 04:19:01;;;;;;;3.30;2.35;;;10.50;99.90;;;;;;5126643;27;20266;-73
2020/12/17 04:21:27;;;;;;;3.08;2.78;;;10.50;99.90;;;;;;5120530;27;20513;-73
2020/12/17 04:23:53;;;;;;;3.85;2.53;;;10.50;99.90;;;;;;5113893;28;20193;-73
2020/12/17 04:26:20;;;;;;;2.88;2.67;;;10.50;99.90;;;;;;5115601;27;20196;-73
2020/12/17 04:28:47;;;;;;;2.20;2.00;;;10.50;99.90;;;;;;5115940;27;20586;-73
2020/12/17 04:31:13;;;;;;;2.72;2.53;;;10.50;99.90;;;;;;5113089;27;20258;-73
2020/12/17 04:33:39;;;;;;;2.70;2.40;;;10.50;99.90;;;;;;5113541;27;20216;-74
2020/12/17 04:36:06;;;;;;;3.75;2.97;;;10.50;99.90;;;;;;5120132;27;20196;-73
2020/12/17 04:38:32;;;;;;;2.50;2.30;;;10.50;99.90;;;;;;5124764;27;20211;-73
2020/12/17 04:41:03;;;;;;;2.40;2.20;;;10.50;99.90;;;;;;5122655;27;20684;-74
2020/12/17 04:43:30;;;;;;;4.00;2.92;;;10.50;99.90;;;;;;5114212;27;20242;-74
2020/12/17 04:45:58;;;;;;;3.63;2.28;;;10.50;99.90;;;;;;5114696;27;20496;-75
2020/12/17 04:48:26;;;;;;;3.35;3.05;;;10.50;99.90;;;;;;5113048;27;20204;-73
2020/12/17 04:50:53;;;;;;;3.35;2.72;;;10.50;99.90;;;;;;5124855;27;20266;-73
2020/12/17 04:53:19;;;;;;;2.78;2.58;;;10.60;99.90;;;;;;5124191;27;20210;-73
2020/12/17 04:55:48;;;;;;;3.10;2.55;;;10.50;99.90;;;;;;5119075;27;20219;-73
2020/12/17 04:58:19;;;;;;;3.00;2.35;;;10.50;99.90;;;;;;5113856;27;20192;-73
2020/12/17 05:00:51;;;;;;;2.63;2.20;;;10.50;99.90;;;;;;5112721;28;20663;-73
2020/12/17 05:03:20;;;;;;;3.08;2.80;;;10.50;99.90;;;;;;5124052;27;20196;-74
2020/12/17 05:05:51;;;;;;;3.22;2.42;;;10.50;99.90;;;;;;5115565;27;20192;-75
2020/12/17 05:08:18;;;;;;;2.80;2.40;;;10.50;99.90;;;;;;5114337;28;20197;-74
2020/12/17 05:10:44;;;;;;;3.90;2.40;;;10.60;99.90;;;;;;5124489;27;20216;-74
2020/12/17 05:13:10;;;;;;;2.42;2.22;;;10.60;99.90;;;;;;5132542;27;20184;-74
2020/12/17 05:15:38;;;;;;;4.28;2.80;;;10.50;99.90;;;;;;5133343;27;20195;-74
2020/12/17 05:18:07;;;;;;;3.00;2.80;;;10.50;99.90;;;;;;5119855;27;20205;-74
2020/12/17 05:20:36;;;;;;;2.90;2.47;;;10.60;99.90;;;;;;5118592;27;20569;-74
2020/12/17 05:23:04;;;;;;;2.50;2.30;;;10.60;99.90;;;;;;5133325;27;20191;-74
2020/12/17 05:25:31;;;;;;;3.15;2.17;;;10.60;99.90;;;;;;5117034;27;20204;-74
2020/12/17 05:28:00;;;;;;;4.82;2.85;;;10.60;99.90;;;;;;5116456;27;20209;-75
2020/12/17 05:30:32;;;;;;;4.05;2.67;;;10.60;99.90;;;;;;5113934;27;20660;-75
2020/12/17 05:32:58;;;;;;;3.90;2.30;;;10.60;99.90;;;;;;5112594;28;20185;-75
2020/12/17 05:35:31;;;;;;;2.45;2.20;;;10.60;99.90;;;;;;5112681;28;20192;-75
2020/12/17 05:38:00;;;;;;;3.15;2.67;;;10.60;99.90;;;;;;5123850;27;20200;-75
2020/12/17 05:40:26;;;;;;;2.80;2.47;;;10.60;99.90;;;;;;5121143;27;20225;-76
2020/12/17 05:42:53;;;;;;;4.30;3.85;;;10.60;99.90;;;;;;5112248;28;20204;-76
2020/12/17 05:45:24;;;;;;;2.88;2.55;;;10.60;99.90;;;;;;5112413;28;20219;-76
2020/12/17 05:48:08;;;;;;;3.80;2.70;;;10.60;99.90;;;;;;5111984;28;20193;-76
2020/12/17 05:50:35;;;;;;;2.42;2.20;;;10.60;99.90;;;;;;5121144;28;20254;-76
2020/12/17 05:53:02;;;;;;;2.90;2.70;;;10.60;99.90;;;;;;5112549;28;20211;-75
2020/12/17 05:55:30;;;;;;;3.65;2.58;;;10.60;99.90;;;;;;5123255;28;20240;-75
2020/12/17 05:57:57;;;;;;;4.00;3.20;;;10.60;99.90;;;;;;5112519;27;20200;-76
2020/12/17 06:00:23;;;;;;;5.35;2.85;;;10.60;99.90;;;;;;5129143;28;20534;-75
2020/12/17 06:02:49;;;;;;;3.30;2.90;;;10.60;99.90;;;;;;5115509;27;20197;-75
2020/12/17 06:05:16;;;;;;;2.92;2.60;;;10.60;99.90;;;;;;5122729;28;20196;-75
2020/12/17 06:07:51;;;;;;;3.10;2.80;;;10.60;99.90;;;;;;5113149;28;20211;-75
2020/12/17 06:10:20;;;;;;;3.47;2.90;;;10.60;99.90;;;;;;5114650;28;20212;-74
2020/12/17 06:12:48;;;;;;;3.80;3.45;;;10.70;99.90;;;;;;5112143;28;20193;-74
2020/12/17 06:15:18;;;;;;;4.15;3.30;;;10.70;99.90;;;;;;5111767;28;20192;-74
2020/12/17 06:17:49;;;;;;;3.58;3.28;;;10.70;99.90;;;;;;5126112;28;20206;-74
2020/12/17 06:20:17;;;;;;;2.90;2.60;;;10.70;99.90;;;;;;5115969;28;20193;-74
2020/12/17 06:22:50;;;;;;;3.38;3.17;;;10.70;99.90;;;;;;5131288;28;20202;-74
2020/12/17 06:25:18;;;;;;;3.60;3.30;;;10.70;99.90;;;;;;5125593;27;20200;-74
2020/12/17 06:27:47;;;;;;;9.68;4.25;;;10.60;99.90;;;;;;5121960;28;20211;-75
2020/12/17 06:30:16;;;;;;;4.90;3.10;;;10.70;99.90;;;;;;5110737;28;20231;-75
2020/12/17 06:32:43;;;;;;;6.22;3.20;;;10.70;99.90;;;;;;5111499;28;20196;-75
2020/12/17 06:35:26;;;;;;;4.07;3.33;;;10.70;99.90;;;;;;5112183;28;20197;-75
2020/12/17 06:37:55;;;;;;;3.95;3.22;;;10.70;99.90;;;;;;5117833;28;20281;-75
2020/12/17 06:40:26;;;;;;;5.53;3.20;;;10.70;99.90;;;;;;5123524;27;20560;-74
2020/12/17 06:42:52;;;;;;;5.72;3.40;;;10.70;99.90;;;;;;5115835;27;20207;-74
2020/12/17 06:45:27;;;;;;;3.75;3.33;;;10.70;99.90;;;;;;5115346;27;20201;-75
2020/12/17 06:47:53;;;;;;;3.90;3.50;;;10.70;99.90;;;;;;5129770;27;20192;-75
2020/12/17 06:50:21;;;;;;;3.53;3.20;;;10.70;99.90;;;;;;5121684;27;20229;-75
2020/12/17 06:53:09;;;;;;;4.18;3.78;;;10.70;99.90;;;;;;5115720;28;20201;-74
2020/12/17 06:55:40;;;;;;;3.40;3.08;;;10.70;99.90;;;;;;5115275;27;20272;-73
2020/12/17 06:58:06;;;;;;;3.92;3.40;;;10.70;99.90;;;;;;5134220;27;20635;-73
2020/12/17 07:00:32;;;;;;;3.33;2.75;;;10.70;99.90;;;;;;5122029;27;20188;-74
2020/12/17 07:02:59;;;;;;;3.10;2.80;;;10.80;99.90;;;;;;5124575;27;20196;-74
2020/12/17 07:05:32;;;;;;;5.20;4.07;;;10.80;99.90;;;;;;5135792;27;20200;-75
2020/12/17 07:07:59;;;;;;;3.40;3.10;;;10.70;99.90;;;;;;5135348;27;20211;-75
2020/12/17 07:10:27;;;;;;;8.00;3.70;;;10.70;99.90;;;;;;5119755;27;20220;-75
2020/12/17 07:12:54;;;;;;;4.25;3.85;;;10.80;99.90;;;;;;5121052;27;20192;-75
2020/12/17 07:15:35;;;;;;;3.33;2.97;;;10.70;99.90;;;;;;5126290;27;20211;-75
2020/12/17 07:18:21;;;;;;;3.90;2.92;;;10.70;99.90;;;;;;5123781;27;20188;-75
2020/12/17 07:20:51;;;;;;;4.45;3.13;;;10.80;99.90;;;;;;5116270;27;20189;-75
2020/12/17 07:23:17;;;;;;;3.85;3.25;;;10.80;99.90;;;;;;5114609;28;20193;-75
2020/12/17 07:25:46;;;;;;;4.80;3.88;;;10.70;99.90;;;;;;5114885;28;20204;-75
2020/12/17 07:28:15;;;;;;;3.25;2.95;;;10.70;99.90;;;;;;5114985;27;20201;-75
2020/12/17 07:30:51;;;;;;;5.00;3.83;;;10.80;99.90;;;;;;5124750;27;20216;-74
2020/12/17 07:33:41;;;;;;;3.58;3.28;;;10.70;99.90;;;;;;5122726;27;20196;-73
2020/12/17 07:36:08;;;;;;;4.22;3.83;;;10.70;99.90;;;;;;5114886;28;20198;-73
2020/12/17 07:38:35;;;;;;;3.17;2.90;;;10.80;99.90;;;;;;5116409;27;20193;-73
2020/12/17 07:41:03;;;;;;;3.97;3.28;;;10.80;99.90;;;;;;5122978;27;20232;-73
2020/12/17 07:43:40;;;;;;;4.28;2.88;;;10.80;99.90;;;;;;5119668;27;20257;-73
2020/12/17 07:46:08;;;;;;;3.88;3.47;;;10.70;99.90;;;;;;5115044;27;20196;-75
2020/12/17 07:48:43;;;;;;;3.55;3.25;;;10.70;99.90;;;;;;5120147;27;20204;-74
2020/12/17 07:51:28;;;;;;;3.13;2.67;;;10.70;99.90;;;;;;5122464;27;20215;-74
2020/12/17 07:53:55;;;;;;;3.42;3.13;;;10.70;99.90;;;;;;5118108;27;20520;-74
2020/12/17 07:56:23;;;;;;;3.33;3.03;;;10.80;99.90;;;;;;5124974;27;20196;-74
2020/12/17 07:58:51;;;;;;;3.30;3.00;;;10.70;99.90;;;;;;5132031;27;20204;-73
2020/12/17 08:01:18;;;;;;;3.80;3.40;;;10.80;99.90;;;;;;5118875;27;20280;-72
2020/12/17 08:03:46;;;;;;;4.93;3.58;;;10.80;99.90;;;;;;5113637;28;20265;-72
2020/12/17 08:06:14;;;;;;;5.15;3.88;;;10.80;99.90;;;;;;5123886;27;20640;-72
2020/12/17 08:08:41;;;;;;;3.10;2.80;;;10.70;99.90;;;;;;5133834;27;20200;-73
2020/12/17 08:11:09;;;;;;;4.25;3.33;;;10.80;99.90;;;;;;5113416;28;20220;-72
2020/12/17 08:13:36;;;;;;;4.82;3.15;;;10.80;99.90;;;;;;5114098;27;20204;-72
2020/12/17 08:16:04;;;;;;;3.50;3.20;;;10.80;99.90;;;;;;5114238;28;20196;-73
2020/12/17 08:18:32;;;;;;;3.28;2.97;;;10.80;99.90;;;;;;5123637;27;20196;-72
2020/12/17 08:21:06;;;;;;;3.80;3.08;;;10.80;99.90;;;;;;5133252;27;20196;-73
2020/12/17 08:23:33;;;;;;;3.50;3.20;;;10.80;99.90;;;;;;5132673;27;20557;-73
2020/12/17 08:26:01;;;;;;;5.15;3.28;;;10.80;99.90;;;;;;5123361;27;20207;-73
2020/12/17 08:28:36;;;;;;;3.20;2.90;;;10.80;99.90;;;;;;5113231;27;20200;-72
2020/12/17 08:31:08;;;;;;;3.70;3.05;;;10.80;99.90;;;;;;5131674;27;20674;-72
2020/12/17 08:33:35;;;;;;;4.80;3.13;;;10.80;99.90;;;;;;5131574;27;20204;-72
2020/12/17 08:36:04;;;;;;;4.43;3.75;;;10.80;99.90;;;;;;5122599;27;20231;-72
2020/12/17 08:38:30;;;;;;;5.10;3.33;;;10.80;99.90;;;;;;5113012;28;20669;-72
2020/12/17 08:40:57;;;;;;;4.57;3.38;;;10.80;99.90;;;;;;5114352;27;20212;-72
2020/12/17 08:43:26;;;;;;;3.33;3.03;;;10.80;99.90;;;;;;5140564;27;20191;-72
2020/12/17 08:45:55;;;;;;;6.75;3.60;;;10.80;99.90;;;;;;5113144;27;20204;-72
2020/12/17 08:48:22;;;;;;;4.65;3.42;;;10.80;99.90;;;;;;5119354;27;20201;-72
2020/12/17 08:50:50;;;;;;;5.40;3.78;;;10.80;99.90;;;;;;5118672;27;20213;-72
2020/12/17 08:53:21;;;;;;;3.30;3.00;;;10.90;99.90;;;;;;5119997;27;20199;-72
2020/12/17 08:56:01;;;;;;;5.50;4.22;;;10.80;99.90;;;;;;5116724;27;20517;-72
2020/12/17 08:58:27;;;;;;;4.63;3.30;;;10.80;99.90;;;;;;5113215;28;20177;-72
2020/12/17 09:00:54;;;;;;;4.15;2.75;;;10.80;99.90;;;;;;5120875;27;20253;-72
2020/12/17 09:03:22;;;;;;;3.47;3.17;;;10.80;99.90;;;;;;5120123;27;20207;-72
2020/12/17 09:06:04;;;;;;;3.65;3.10;;;10.80;99.90;;;;;;5112695;27;20197;-72
2020/12/17 09:08:31;;;;;;;4.32;3.15;;;10.80;99.90;;;;;;5110159;28;20192;-72
2020/12/17 09:10:57;;;;;;;5.30;3.22;;;10.90;99.90;;;;;;5112162;28;20215;-72
2020/12/17 09:13:23;;;;;;;3.95;3.00;;;10.90;99.90;;;;;;5124675;27;20268;-72
2020/12/17 09:16:01;;;;;;;3.90;3.08;;;10.90;99.90;;;;;;5127303;27;20188;-75
2020/12/17 09:18:29;;;;;;;3.88;3.40;;;10.80;99.90;;;;;;5111454;27;20189;-72
2020/12/17 09:21:08;;;;;;;3.38;3.08;;;10.80;99.90;;;;;;5120983;27;20197;-72
2020/12/17 09:23:35;;;;;;;3.38;3.08;;;10.80;99.90;;;;;;5129989;27;20202;-74
2020/12/17 09:26:15;;;;;;;3.35;3.05;;;10.90;99.90;;;;;;5116374;27;20185;-72
2020/12/17 09:28:55;;;;;;;4.40;4.00;;;10.80;99.90;;;;;;5114619;27;20632;-76
2020/12/17 09:31:28;;;;;;;4.70;3.33;;;10.90;99.90;;;;;;5128796;27;20222;-75
2020/12/17 09:34:12;;;;;;;4.45;3.42;;;10.90;99.90;;;;;;5122498;27;20192;-75
2020/12/17 09:36:40;;;;;;;3.00;2.80;;;10.90;99.90;;;;;;5124865;27;20199;-75
2020/12/17 09:39:12;;;;;;;3.35;2.85;;;10.90;99.90;;;;;;5116958;27;20203;-73
2020/12/17 09:41:49;;;;;;;3.33;2.80;;;10.90;99.90;;;;;;5113425;28;20192;-75
2020/12/17 09:44:26;;;;;;;3.03;2.80;;;10.80;99.90;;;;;;5115700;28;20204;-75
2020/12/17 09:46:53;;;;;;;4.35;2.88;;;10.80;99.90;;;;;;5116260;28;20189;-75
2020/12/17 09:49:25;;;;;;;3.00;2.78;;;10.80;99.90;;;;;;5126207;27;20200;-75
2020/12/17 09:52:09;;;;;;;3.85;2.42;;;10.80;99.90;;;;;;5128041;27;20211;-75
2020/12/17 09:54:39;;;;;;;4.00;3.33;;;10.80;99.90;;;;;;5126726;27;20336;-75
2020/12/17 09:57:10;;;;;;;4.00;2.42;;;10.90;99.90;;;;;;5123335;27;20899;-74
2020/12/17 09:59:38;;;;;;;2.45;2.25;;;10.90;99.90;;;;;;5123841;27;20200;-75
2020/12/17 10:02:08;;;;;;;4.65;2.75;;;10.90;99.90;;;;;;5124115;27;20197;-75
2020/12/17 10:04:34;;;;;;;2.70;2.22;;;10.90;99.90;;;;;;5121945;28;20199;-75
2020/12/17 10:07:00;;;;;;;3.25;2.80;;;10.90;99.90;;;;;;5115173;28;20193;-76
2020/12/17 10:09:27;;;;;;;4.20;3.15;;;10.90;99.90;;;;;;5119282;27;20205;-75
2020/12/17 10:11:55;;;;;;;3.47;2.80;;;10.80;99.90;;;;;;5124039;27;20663;-75
2020/12/17 10:14:22;;;;;;;2.30;2.05;;;10.80;99.90;;;;;;5123442;27;20203;-75
2020/12/17 10:16:49;;;;;;;2.85;2.63;;;10.80;99.90;;;;;;5129847;27;20548;-75
2020/12/17 10:19:17;;;;;;;3.25;2.58;;;10.90;99.90;;;;;;5119497;27;20650;-75
2020/12/17 10:21:43;;;;;;;3.70;2.47;;;10.90;99.90;;;;;;5122933;27;20185;-75
2020/12/17 10:24:10;;;;;;;3.78;2.40;;;10.90;99.90;;;;;;5116114;27;20192;-75
2020/12/17 10:26:36;;;;;;;2.70;2.30;;;10.90;99.90;;;;;;5116271;27;20201;-75
2020/12/17 10:29:02;;;;;;;2.20;1.92;;;10.90;99.90;;;;;;5118506;27;20203;-75
2020/12/17 10:31:29;;;;;;;3.38;2.45;;;10.90;99.90;;;;;;5115668;27;20228;-75
2020/12/17 10:33:56;;;;;;;3.70;2.85;;;10.90;99.90;;;;;;5116242;27;20208;-76
2020/12/17 10:36:24;;;;;;;2.50;2.30;;;11.00;99.90;;;;;;5119140;27;20192;-75
2020/12/17 10:38:51;;;;;;;3.80;2.30;;;11.00;99.90;;;;;;5116377;27;20193;-78
2020/12/17 10:41:24;;;;;;;1.98;1.77;;;11.00;99.90;;;;;;5123942;27;20224;-77
2020/12/17 10:43:50;;;;;;;3.25;2.40;;;10.90;99.90;;;;;;5120859;27;20244;-75
2020/12/17 10:46:17;;;;;;;3.42;2.35;;;10.90;99.90;;;;;;5129931;27;20192;-76
2020/12/17 10:48:43;;;;;;;3.25;2.25;;;10.90;99.90;;;;;;5125856;27;20244;-74
2020/12/17 10:51:12;;;;;;;3.17;2.20;;;10.90;99.90;;;;;;5113882;27;20216;-75
2020/12/17 10:53:39;;;;;;;2.05;1.80;;;11.00;99.90;;;;;;5116722;27;20197;-75
2020/12/17 10:56:06;;;;;;;2.53;2.17;;;11.00;99.90;;;;;;5115527;27;20206;-75
2020/12/17 10:58:33;;;;;;;3.33;1.70;;;11.00;99.90;;;;;;5119480;27;20266;-74
2020/12/17 11:00:59;;;;;;;2.10;1.90;;;11.00;99.90;;;;;;5115906;27;20189;-74
2020/12/17 11:03:25;;;;;;;2.83;2.20;;;11.00;99.90;;;;;;5117048;27;20204;-74
2020/12/17 11:05:53;;;;;;;2.85;2.55;;;11.00;99.90;;;;;;5115236;27;20201;-75
2020/12/17 11:08:19;;;;;;;3.25;2.03;;;10.90;99.90;;;;;;5113481;27;20260;-75
2020/12/17 11:10:46;;;;;;;2.65;1.77;;;10.90;99.90;;;;;;5121469;27;20681;-75
2020/12/17 11:13:14;;;;;;;3.05;2.40;;;11.00;99.90;;;;;;5118399;27;20214;-75
2020/12/17 11:15:42;;;;;;;2.80;1.50;;;11.00;99.90;;;;;;5115849;27;20196;-77
2020/12/17 11:18:08;;;;;;;2.08;1.88;;;11.00;99.90;;;;;;5125577;27;20196;-76
2020/12/17 11:20:35;;;;;;;1.90;1.67;;;11.00;99.90;;;;;;5118717;27;20213;-77
2020/12/17 11:23:01;;;;;;;3.47;2.20;;;11.00;99.90;;;;;;5114625;27;20202;-75
2020/12/17 11:25:28;;;;;;;1.85;1.45;;;11.00;99.90;;;;;;5113867;27;20192;-74
2020/12/17 11:27:55;;;;;;;2.40;1.60;;;11.00;99.90;;;;;;5116924;27;20199;-73
2020/12/17 11:30:21;;;;;;;2.95;1.80;;;11.00;99.90;;;;;;5114688;27;20217;-74
2020/12/17 11:32:47;;;;;;;1.83;1.67;;;11.00;99.90;;;;;;5117373;27;20283;-75
2020/12/17 11:35:14;;;;;;;2.17;1.48;;;11.00;99.90;;;;;;5116616;27;20191;-77
2020/12/17 11:37:40;;;;;;;5.20;2.22;;;11.00;99.90;;;;;;5124949;27;20199;-76
2020/12/17 11:40:06;;;;;;;1.92;1.67;;;11.10;99.90;;;;;;5120595;27;20220;-76
2020/12/17 11:42:32;;;;;;;3.38;1.25;;;11.10;99.90;;;;;;5114824;27;21726;-74
2020/12/17 11:45:00;;;;;;;2.03;1.50;;;11.10;99.90;;;;;;5126669;27;20203;-75
2020/12/17 11:47:29;;;;;;;2.03;1.83;;;11.00;99.90;;;;;;5122219;27;20204;-75
2020/12/17 11:49:56;;;;;;;2.20;1.40;;;11.00;99.90;;;;;;5114205;27;20193;-74
2020/12/17 11:52:22;;;;;;;1.92;1.75;;;11.00;99.90;;;;;;5118262;27;20200;-72
2020/12/17 11:54:48;;;;;;;3.72;1.67;;;11.00;99.90;;;;;;5116045;27;20193;-73
2020/12/17 11:57:14;;;;;;;2.30;1.75;;;11.10;99.90;;;;;;5116988;27;20220;-73
2020/12/17 11:59:41;;;;;;;1.98;1.63;;;11.10;99.90;;;;;;5127072;27;20192;-73
2020/12/17 12:02:08;;;;;;;3.08;1.73;;;11.10;99.90;;;;;;5115698;27;20577;-72
2020/12/17 12:04:34;;;;;;;2.95;1.52;;;11.10;99.90;;;;;;5113952;28;20200;-72
2020/12/17 12:07:00;;;;;;;2.47;1.80;;;11.10;99.90;;;;;;5117454;27;20189;-73
2020/12/17 12:09:27;;;;;;;2.30;1.92;;;11.10;99.90;;;;;;5117470;27;20598;-73
2020/12/17 12:11:54;;;;;;;2.30;1.42;;;11.10;99.90;;;;;;5114091;27;20219;-73
2020/12/17 12:14:21;;;;;;;1.65;1.30;;;11.10;99.90;;;;;;5114204;28;20196;-73
2020/12/17 12:16:47;;;;;;;1.80;1.70;;;11.20;99.90;;;;;;5116880;27;20192;-73
2020/12/17 12:19:14;;;;;;;3.63;1.92;;;11.20;99.90;;;;;;5117049;27;20717;-73
2020/12/17 12:21:40;;;;;;;5.75;1.70;;;11.20;99.90;;;;;;5115343;27;20203;-74
2020/12/17 12:24:07;;;;;;;2.03;1.38;;;11.20;99.90;;;;;;5117417;27;20286;-73
2020/12/17 12:26:33;;;;;;;3.15;1.70;;;11.20;99.90;;;;;;5112611;27;20203;-74
2020/12/17 12:28:59;;;;;;;4.70;1.33;;;11.20;99.90;;;;;;5113577;27;20931;-73
2020/12/17 12:31:25;;;;;;;6.32;1.60;;;11.20;99.90;;;;;;5116969;27;20229;-74
2020/12/17 12:33:52;;;;;;;2.00;1.48;;;11.20;99.90;;;;;;5112799;27;20241;-74
2020/12/17 12:36:19;;;;;;;1.40;1.30;;;11.20;99.90;;;;;;5118008;27;20229;-74
2020/12/17 12:38:45;;;;;;;1.60;1.30;;;11.20;99.90;;;;;;5123930;27;20200;-74
2020/12/17 12:41:11;;;;;;;1.60;1.50;;;11.20;99.90;;;;;;5116187;27;20220;-74
2020/12/17 12:43:38;;;;;;;3.13;1.42;;;11.20;99.90;;;;;;5118977;27;20201;-73
2020/12/17 12:46:04;;;;;;;1.45;1.08;;;11.20;99.90;;;;;;5116887;27;20197;-73
2020/12/17 12:48:30;;;;;;;3.40;1.90;;;11.20;99.90;;;;;;5113726;27;20540;-75
2020/12/17 12:50:57;;;;;;;1.60;1.50;;;11.20;99.90;;;;;;5112917;28;20262;-73
2020/12/17 12:53:24;;;;;;;2.75;1.60;;;11.20;99.90;;;;;;5113391;27;20208;-74
2020/12/17 12:55:50;;;;;;;1.50;1.30;;;11.20;99.90;;;;;;5119373;27;20192;-74